Time;durP1;ratioP1;P1;durP2;ratioP2;P2;SDS_P1;SDS_P2;PMS_P1;PMS_P2;Temp;Humidity;BMP_temperature;BMP_pressure;BME280_temperature;BME280_humidity;BME280_pressure;Samples;Min_cycle;Max_cycle;Signal;HPM_P1;HPM_P2
2023/05/13 00:02:07;;;;;;;6.47;4.00;;;;;;;15.97;76.46;102242.63;5099076;27;97724;-30
2023/05/13 00:04:33;;;;;;;5.85;3.88;;;;;;;15.97;76.25;102248.06;5099123;27;96741;-30
2023/05/13 00:06:58;;;;;;;6.00;3.80;;;;;;;15.98;76.19;102255.28;5099796;27;96868;-32
2023/05/13 00:09:23;;;;;;;4.45;3.08;;;;;;;15.95;76.09;102251.88;5098941;27;97945;-30
2023/05/13 00:11:49;;;;;;;5.47;3.25;;;;;;;15.91;76.03;102249.31;5098788;27;97377;-30
2023/05/13 00:14:14;;;;;;;5.47;3.72;;;;;;;15.90;76.08;102242.09;5098952;27;96624;-32
2023/05/13 00:16:40;;;;;;;7.05;4.03;;;;;;;15.90;76.01;102249.44;5099741;27;96553;-30
2023/05/13 00:19:05;;;;;;;5.70;3.13;;;;;;;15.90;75.82;102255.75;5098600;27;100216;-30
2023/05/13 00:21:31;;;;;;;4.38;2.85;;;;;;;15.84;74.97;102249.78;5098843;27;97812;-31
2023/05/13 00:23:56;;;;;;;6.10;3.22;;;;;;;15.86;75.23;102256.03;5098768;27;96674;-31
2023/05/13 00:26:22;;;;;;;5.65;3.08;;;;;;;15.87;74.94;102249.59;5098973;27;96851;-29
2023/05/13 00:28:47;;;;;;;5.05;3.17;;;;;;;15.87;74.62;102242.31;5098449;27;97983;-30
2023/05/13 00:31:13;;;;;;;5.07;3.00;;;;;;;15.85;74.82;102243.34;5097932;27;97424;-30
2023/05/13 00:33:38;;;;;;;3.92;2.65;;;;;;;15.83;74.34;102239.84;5080340;27;96629;-30
2023/05/13 00:36:04;;;;;;;4.38;2.97;;;;;;;15.79;73.99;102243.75;5098911;27;96763;-30
2023/05/13 00:38:29;;;;;;;6.43;3.17;;;;;;;15.79;74.31;102250.06;5098636;27;97971;-30
2023/05/13 00:40:55;;;;;;;3.53;2.15;;;;;;;15.76;73.84;102244.81;5080040;27;98980;-32
2023/05/13 00:43:20;;;;;;;5.15;3.05;;;;;;;15.75;73.66;102229.38;5098996;27;96815;-32
2023/05/13 00:45:46;;;;;;;5.60;2.70;;;;;;;15.67;73.64;102240.75;5079881;27;96949;-30
2023/05/13 00:48:11;;;;;;;3.28;2.40;;;;;;;15.66;73.71;102233.53;5097933;27;97456;-30
2023/05/13 00:50:38;;;;;;;3.90;2.38;;;;;;;15.66;73.36;102240.81;5098065;27;98518;-30
2023/05/13 00:53:03;;;;;;;4.35;2.72;;;;;;;15.65;73.09;102253.59;5080031;27;96637;-31
2023/05/13 00:55:29;;;;;;;4.45;2.33;;;;;;;15.63;72.58;102250.09;5098820;27;96622;-30
2023/05/13 00:57:54;;;;;;;7.30;2.58;;;;;;;15.57;72.36;102244.13;5062365;27;101274;-30
2023/05/13 01:00:20;;;;;;;3.63;2.38;;;;;;;15.59;72.86;102245.81;5079613;27;101049;-30
2023/05/13 01:03:17;;;;;;;3.20;2.20;;;;;;;15.58;72.17;102246.75;5098452;27;96583;-30
2023/05/13 01:06:09;;;;;;;3.50;2.05;;;;;;;15.58;71.61;102246.75;5098751;27;96905;-31
2023/05/13 01:08:40;;;;;;;5.60;1.95;;;;;;;15.58;71.67;102256.81;5079408;27;100205;-30
2023/05/13 01:11:14;;;;;;;3.78;1.77;;;;;;;15.51;71.80;102245.34;5098349;27;97910;-30
2023/05/13 01:13:43;;;;;;;3.33;1.90;;;;;;;15.51;71.08;102245.34;5079272;27;96623;-31
2023/05/13 01:16:16;;;;;;;3.35;2.05;;;;;;;15.52;71.40;102252.59;5079793;27;96880;-31
2023/05/13 01:19:05;;;;;;;2.10;1.50;;;;;;;15.51;71.03;102251.69;5079071;27;100858;-30
2023/05/13 01:21:35;;;;;;;2.80;1.90;;;;;;;15.46;70.30;102251.09;5079337;27;102314;-30
2023/05/13 01:24:00;;;;;;;3.80;2.00;;;;;;;15.43;69.77;102242.22;5079789;27;96608;-29
2023/05/13 01:26:27;;;;;;;3.03;1.80;;;;;;;15.45;70.05;102237.56;5098529;27;96844;-30
2023/05/13 01:28:52;;;;;;;3.30;1.83;;;;;;;15.45;69.15;102246.63;5079138;27;101462;-30
2023/05/13 01:31:20;;;;;;;2.35;1.77;;;;;;;15.48;69.16;102243.69;5097389;27;99138;-30
2023/05/13 01:33:46;;;;;;;3.28;1.92;;;;;;;15.46;69.52;102242.91;5079666;27;96518;-31
2023/05/13 01:36:12;;;;;;;4.50;2.03;;;;;;;15.47;69.37;102243.81;5079366;27;96913;-30
2023/05/13 01:38:39;;;;;;;3.08;2.10;;;;;;;15.46;69.41;102247.50;5078433;27;100854;-30
2023/05/13 01:41:05;;;;;;;6.45;2.10;;;;;;;15.45;69.13;102246.63;5078887;27;100747;-30
2023/05/13 01:43:30;;;;;;;2.78;2.00;;;;;;;15.49;69.55;102250.03;5098252;27;96506;-30
2023/05/13 01:45:59;;;;;;;3.90;2.03;;;;;;;15.46;68.62;102242.03;5098119;27;96804;-31
2023/05/13 01:48:24;;;;;;;2.42;1.75;;;;;;;15.45;69.62;102245.75;5097571;27;98162;-29
2023/05/13 01:50:51;;;;;;;5.25;1.92;;;;;;;15.41;69.00;102241.44;5097657;27;97295;-30
2023/05/13 01:53:17;;;;;;;2.25;1.63;;;;;;;15.39;68.88;102246.97;5097964;27;96455;-31
2023/05/13 01:55:45;;;;;;;3.75;1.80;;;;;;;15.35;68.64;102239.06;5098469;27;96906;-30
2023/05/13 01:58:10;;;;;;;2.90;1.90;;;;;;;15.34;68.75;102243.63;5100925;27;97374;-30
2023/05/13 02:00:35;;;;;;;2.72;1.95;;;;;;;15.29;69.01;102246.66;5100675;27;97333;-30
2023/05/13 02:03:01;;;;;;;3.20;1.75;;;;;;;15.29;69.12;102249.38;5101186;27;96514;-30
2023/05/13 02:05:26;;;;;;;4.20;2.38;;;;;;;15.23;69.16;102247.03;5101069;27;96972;-30
2023/05/13 02:07:51;;;;;;;6.13;1.90;;;;;;;15.18;69.54;102243.69;5100969;27;97962;-30
2023/05/13 02:10:17;;;;;;;3.63;1.58;;;;;;;15.18;69.78;102242.78;5101113;27;96501;-30
2023/05/13 02:12:42;;;;;;;4.75;2.05;;;;;;;15.18;69.47;102242.78;5101273;27;96564;-30
2023/05/13 02:15:08;;;;;;;4.05;2.17;;;;;;;15.13;69.55;102248.50;5101146;27;96804;-31
2023/05/13 02:17:33;;;;;;;3.17;1.85;;;;;;;15.11;69.85;102244.09;5100618;27;97849;-30
2023/05/13 02:19:59;;;;;;;4.80;2.40;;;;;;;15.04;68.61;102240.84;5082204;27;99216;-29
2023/05/13 02:22:24;;;;;;;4.50;2.13;;;;;;;15.03;69.06;102250.03;5101048;27;96555;-30
2023/05/13 02:24:49;;;;;;;2.97;2.17;;;;;;;15.01;69.31;102244.63;5101144;27;96789;-31
2023/05/13 02:27:15;;;;;;;3.33;2.30;;;;;;;15.01;69.40;102249.22;5081467;27;101176;-30
2023/05/13 02:29:41;;;;;;;2.67;1.77;;;;;;;14.99;69.57;102237.50;5100362;27;98951;-30
2023/05/13 02:32:06;;;;;;;3.90;2.05;;;;;;;14.98;69.52;102246.69;5099840;27;96966;-30
2023/05/13 02:34:32;;;;;;;3.25;2.13;;;;;;;14.93;69.58;102244.22;5101001;27;98251;-30
2023/05/13 02:36:57;;;;;;;2.95;1.92;;;;;;;14.91;69.33;102242.53;5100497;27;97957;-30
2023/05/13 02:39:22;;;;;;;2.78;1.83;;;;;;;14.86;69.75;102243.69;5100450;27;97911;-31
2023/05/13 02:41:48;;;;;;;2.20;1.77;;;;;;;14.85;69.32;102244.66;5100762;27;96673;-33
2023/05/13 02:44:14;;;;;;;2.63;1.73;;;;;;;14.79;69.00;102241.41;5082442;27;96924;-30
2023/05/13 02:46:39;;;;;;;2.75;1.90;;;;;;;14.73;68.65;102241.75;5099979;27;99003;-30
2023/05/13 02:49:05;;;;;;;2.65;1.92;;;;;;;14.71;68.46;102246.44;5081815;27;97643;-31
2023/05/13 02:51:30;;;;;;;2.95;1.88;;;;;;;14.67;68.22;102240.25;5100192;27;96584;-29
2023/05/13 02:53:55;;;;;;;3.90;2.17;;;;;;;14.66;69.01;102235.78;5100756;27;96830;-31
2023/05/13 02:56:21;;;;;;;3.75;2.20;;;;;;;14.61;69.09;102241.50;5099916;27;97934;-30
2023/05/13 02:58:46;;;;;;;5.65;2.20;;;;;;;14.61;69.05;102241.50;5099799;27;97918;-30
2023/05/13 03:01:12;;;;;;;4.10;2.22;;;;;;;14.56;68.84;102237.25;5100512;27;96692;-30
2023/05/13 03:03:37;;;;;;;4.78;2.17;;;;;;;14.49;69.11;102241.25;5100093;27;96840;-30
2023/05/13 03:06:03;;;;;;;7.13;2.20;;;;;;;14.48;69.29;102250.41;5099622;27;99639;-30
2023/05/13 03:08:29;;;;;;;4.13;2.30;;;;;;;14.40;69.11;102248.09;5081271;27;102208;-30
2023/05/13 03:10:55;;;;;;;3.60;2.30;;;;;;;14.36;69.80;102249.22;5100223;27;96611;-30
2023/05/13 03:13:21;;;;;;;4.85;2.65;;;;;;;14.29;69.73;102247.81;5081461;27;96960;-30
2023/05/13 03:15:46;;;;;;;3.78;2.60;;;;;;;14.24;70.08;102248.06;5099247;27;97515;-30
2023/05/13 03:18:11;;;;;;;3.00;2.20;;;;;;;14.20;70.19;102247.31;5099861;27;97886;-33
2023/05/13 03:20:37;;;;;;;2.75;2.08;;;;;;;14.16;70.05;102244.88;5100316;27;96745;-31
2023/05/13 03:23:02;;;;;;;2.85;2.20;;;;;;;14.14;70.31;102253.13;5099901;27;96818;-30
2023/05/13 03:25:27;;;;;;;4.50;2.78;;;;;;;14.11;70.25;102246.94;5099709;27;97926;-29
2023/05/13 03:27:53;;;;;;;6.55;2.63;;;;;;;14.10;70.29;102253.38;5099334;27;97740;-30
2023/05/13 03:30:19;;;;;;;6.07;2.50;;;;;;;14.05;70.14;102253.63;5081109;27;96713;-29
2023/05/13 03:32:44;;;;;;;4.88;2.60;;;;;;;14.00;70.18;102255.72;5099269;27;96882;-30
2023/05/13 03:35:10;;;;;;;4.50;2.45;;;;;;;13.93;70.53;102252.44;5099412;27;98005;-30
2023/05/13 03:37:36;;;;;;;4.75;2.70;;;;;;;13.89;69.89;102247.22;5099441;27;97794;-30
2023/05/13 03:40:01;;;;;;;4.72;2.55;;;;;;;13.88;70.45;102257.25;5099260;27;96773;-30
2023/05/13 03:42:29;;;;;;;3.90;2.53;;;;;;;13.85;70.79;102265.59;5099564;27;96842;-30
2023/05/13 03:44:55;;;;;;;3.90;2.67;;;;;;;13.85;70.63;102267.41;5080533;27;101437;-30
2023/05/13 03:47:21;;;;;;;4.53;2.78;;;;;;;13.78;70.64;102264.16;5099368;27;98117;-31
2023/05/13 03:49:47;;;;;;;5.38;3.10;;;;;;;13.78;70.50;102267.75;5099791;27;96699;-31
2023/05/13 03:52:13;;;;;;;7.10;2.97;;;;;;;13.79;70.56;102265.91;5099767;27;97123;-30
2023/05/13 03:54:38;;;;;;;4.03;2.70;;;;;;;13.75;70.67;102269.72;5099273;27;98067;-30
2023/05/13 03:57:04;;;;;;;9.05;2.90;;;;;;;13.72;70.15;102264.44;5099236;27;98724;-30
2023/05/13 03:59:29;;;;;;;6.53;2.90;;;;;;;13.67;70.68;102269.25;5099593;27;96749;-30
2023/05/13 04:01:55;;;;;;;5.63;2.92;;;;;;;13.66;70.50;102281.09;5099589;27;96718;-30
2023/05/13 04:04:20;;;;;;;4.25;2.65;;;;;;;13.61;70.82;102275.91;5098334;27;97560;-30
2023/05/13 04:06:45;;;;;;;4.43;2.90;;;;;;;13.58;70.99;102268.75;5099118;27;97843;-30
2023/05/13 04:09:10;;;;;;;4.20;2.53;;;;;;;13.52;71.01;102271.81;5099448;27;96708;-31
2023/05/13 04:11:36;;;;;;;4.13;2.58;;;;;;;13.48;70.93;102275.63;5099071;27;96797;-30
2023/05/13 04:14:01;;;;;;;4.85;2.72;;;;;;;13.52;71.07;102279.09;5098918;27;97503;-30
2023/05/13 04:16:28;;;;;;;4.28;2.28;;;;;;;13.44;71.03;102279.47;5098816;27;97759;-29
2023/05/13 04:18:53;;;;;;;6.65;2.72;;;;;;;13.48;71.19;102286.53;5098725;27;96738;-31
2023/05/13 04:21:18;;;;;;;4.57;2.35;;;;;;;13.47;71.20;102273.91;5099518;27;96825;-31
2023/05/13 04:23:44;;;;;;;4.60;2.92;;;;;;;13.48;71.41;102285.66;5098879;27;97335;-31
2023/05/13 04:26:10;;;;;;;4.22;2.65;;;;;;;13.43;71.42;102285.88;5098331;27;98807;-29
2023/05/13 04:28:35;;;;;;;5.68;2.95;;;;;;;13.45;71.45;102283.97;5098763;27;96527;-31
2023/05/13 04:31:01;;;;;;;4.82;3.05;;;;;;;13.46;71.42;102285.72;5098701;27;96590;-30
2023/05/13 04:33:27;;;;;;;4.32;2.60;;;;;;;13.41;71.64;102282.34;5097965;27;99316;-30
2023/05/13 04:35:52;;;;;;;3.90;2.65;;;;;;;13.37;71.52;102287.09;5098418;27;96512;-30
2023/05/13 04:38:17;;;;;;;4.63;2.80;;;;;;;13.29;71.78;102278.41;5099194;27;96527;-30
2023/05/13 04:40:43;;;;;;;6.43;3.08;;;;;;;13.35;71.78;102288.13;5098657;27;96827;-29
2023/05/13 04:43:10;;;;;;;6.90;3.40;;;;;;;13.35;71.63;102290.84;5079722;27;100734;-29
2023/05/13 04:45:35;;;;;;;2.67;2.25;;;;;;;13.34;72.10;102291.78;5080145;27;101064;-30
2023/05/13 04:48:01;;;;;;;3.38;2.75;;;;;;;13.34;72.14;102289.94;5099054;27;96482;-30
2023/05/13 04:50:26;;;;;;;6.32;2.92;;;;;;;13.32;72.30;102297.34;5098570;27;96942;-29
2023/05/13 04:52:53;;;;;;;5.78;3.35;;;;;;;13.31;72.41;102287.38;5079241;27;99369;-29
2023/05/13 04:55:19;;;;;;;4.75;3.03;;;;;;;13.32;72.28;102300.06;5097919;27;97856;-29
2023/05/13 04:57:44;;;;;;;5.63;3.20;;;;;;;13.34;72.55;102294.50;5098603;27;96544;-29
2023/05/13 05:00:11;;;;;;;6.38;2.78;;;;;;;13.33;72.64;102295.47;5098776;27;96890;-29
2023/05/13 05:02:36;;;;;;;4.80;3.00;;;;;;;13.36;73.00;102301.63;5079463;27;101819;-30
2023/05/13 05:05:02;;;;;;;5.53;3.03;;;;;;;13.34;72.87;102298.09;5097849;27;99270;-29
2023/05/13 05:07:28;;;;;;;4.95;3.40;;;;;;;13.37;72.92;102297.97;5079990;27;97091;-29
2023/05/13 05:09:53;;;;;;;6.85;3.28;;;;;;;13.37;72.67;102302.50;5098925;27;96743;-30
2023/05/13 05:12:18;;;;;;;5.10;3.20;;;;;;;13.41;73.05;102304.13;5097776;27;98916;-30
2023/05/13 05:14:44;;;;;;;4.32;2.95;;;;;;;13.42;72.84;102311.34;5098043;27;97768;-30
2023/05/13 05:17:09;;;;;;;4.32;2.92;;;;;;;13.42;73.08;102303.19;5079321;27;96570;-30
2023/05/13 05:19:35;;;;;;;4.72;2.95;;;;;;;13.48;73.27;102308.31;5098217;27;96861;-29
2023/05/13 05:22:00;;;;;;;5.75;3.30;;;;;;;13.53;73.12;102299.91;5079465;27;97425;-30
2023/05/13 05:24:25;;;;;;;4.82;3.55;;;;;;;13.55;73.25;102301.59;5097777;27;97397;-29
2023/05/13 05:26:51;;;;;;;6.47;3.75;;;;;;;13.58;73.53;102301.44;5079897;27;96638;-31
2023/05/13 05:29:16;;;;;;;5.25;3.50;;;;;;;13.59;73.15;102302.34;5098474;27;96758;-29
2023/05/13 05:31:42;;;;;;;5.80;3.58;;;;;;;13.59;73.26;102296.88;5098372;27;97412;-30
2023/05/13 05:34:07;;;;;;;6.88;3.72;;;;;;;13.64;73.27;102302.97;5101990;27;97782;-30
2023/05/13 05:36:32;;;;;;;5.13;3.25;;;;;;;13.68;73.40;102301.88;5101938;27;96582;-30
2023/05/13 05:38:58;;;;;;;5.43;3.08;;;;;;;13.74;72.85;102306.09;5101715;27;96786;-30
2023/05/13 05:41:23;;;;;;;6.53;3.35;;;;;;;13.86;72.87;102310.03;5100738;27;97957;-31
2023/05/13 05:43:49;;;;;;;5.60;3.55;;;;;;;13.92;72.74;102310.59;5101267;27;97787;-29
2023/05/13 05:46:15;;;;;;;6.13;3.05;;;;;;;13.94;72.47;102305.97;5101433;27;96590;-31
2023/05/13 05:48:40;;;;;;;6.97;3.75;;;;;;;14.05;72.61;102312.69;5101746;27;96757;-30
2023/05/13 05:51:06;;;;;;;11.38;4.10;;;;;;;14.06;72.36;102307.13;5101138;27;97992;-30
2023/05/13 05:53:32;;;;;;;5.65;2.60;;;;;;;14.12;72.34;102314.13;5082439;27;99186;-30
2023/05/13 05:55:57;;;;;;;6.15;3.58;;;;;;;14.16;72.30;102315.72;5082762;27;96602;-30
2023/05/13 05:58:22;;;;;;;5.50;3.45;;;;;;;14.20;72.46;102325.50;5102019;27;96798;-30
2023/05/13 06:00:48;;;;;;;4.32;2.90;;;;;;;14.30;71.72;102321.34;5082365;27;100674;-29
2023/05/13 06:03:13;;;;;;;6.68;3.67;;;;;;;14.39;71.88;102314.47;5101032;27;97852;-30
2023/05/13 06:05:39;;;;;;;5.68;3.33;;;;;;;14.49;71.77;102315.75;5100589;27;96525;-31
2023/05/13 06:08:04;;;;;;;5.18;3.53;;;;;;;14.52;71.68;102314.72;5101333;27;96827;-32
2023/05/13 06:10:30;;;;;;;7.05;3.13;;;;;;;14.56;71.84;102317.22;5100953;27;97966;-29
2023/05/13 06:12:55;;;;;;;5.93;3.30;;;;;;;14.65;71.44;102310.34;5100933;27;97248;-30
2023/05/13 06:15:20;;;;;;;5.65;3.45;;;;;;;14.76;71.44;102323.41;5101119;27;96625;-31
2023/05/13 06:17:46;;;;;;;8.40;3.47;;;;;;;14.84;71.18;102318.41;5101342;27;96713;-30
2023/05/13 06:20:11;;;;;;;5.55;3.55;;;;;;;14.90;71.28;102320.81;5100766;27;97902;-30
2023/05/13 06:22:37;;;;;;;8.73;3.65;;;;;;;15.04;70.85;102323.63;5100783;27;99498;-30
2023/05/13 06:25:02;;;;;;;9.77;3.88;;;;;;;15.12;70.69;102323.19;5101135;27;96830;-30
2023/05/13 06:27:27;;;;;;;4.82;3.25;;;;;;;15.24;70.54;102314.28;5101305;27;96891;-30
2023/05/13 06:29:53;;;;;;;5.00;3.15;;;;;;;15.38;70.21;102315.34;5100163;27;97429;-29
2023/05/13 06:32:18;;;;;;;7.30;3.58;;;;;;;15.45;70.03;102308.56;5099815;27;99215;-29
2023/05/13 06:34:44;;;;;;;7.22;3.63;;;;;;;15.57;69.80;102309.69;5101174;27;96600;-31
2023/05/13 06:37:14;;;;;;;5.70;3.60;;;;;;;15.65;69.48;102308.25;5082327;27;96863;-30
2023/05/13 06:39:39;;;;;;;5.97;3.25;;;;;;;15.72;69.44;102314.25;5100078;27;97991;-29
2023/05/13 06:42:05;;;;;;;6.68;3.83;;;;;;;15.88;69.54;102316.97;5099878;27;97868;-30
2023/05/13 06:44:30;;;;;;;6.60;3.60;;;;;;;15.99;68.74;102316.28;5100579;27;96537;-29
2023/05/13 06:46:56;;;;;;;4.90;3.28;;;;;;;16.07;68.70;102314.84;5100863;27;96830;-29
2023/05/13 06:49:23;;;;;;;4.80;2.97;;;;;;;16.21;68.87;102319.47;5081688;27;98896;-29
2023/05/13 06:51:49;;;;;;;6.78;3.95;;;;;;;16.30;68.49;102316.19;5081468;27;100898;-29
2023/05/13 06:54:15;;;;;;;8.43;3.58;;;;;;;16.33;68.54;102310.50;5100067;27;96472;-30
2023/05/13 06:56:40;;;;;;;8.70;3.80;;;;;;;16.44;68.00;102314.41;5081646;27;96834;-30
2023/05/13 06:59:06;;;;;;;8.00;3.88;;;;;;;16.53;67.68;102311.97;5100143;27;98589;-29
2023/05/13 07:01:31;;;;;;;5.47;3.33;;;;;;;16.62;67.86;102310.53;5081274;27;99526;-30
2023/05/13 07:03:56;;;;;;;5.18;3.40;;;;;;;16.76;67.29;102318.72;5100278;27;96429;-31
2023/05/13 07:06:22;;;;;;;7.70;3.72;;;;;;;16.88;67.23;102311.63;5100395;27;96894;-30
2023/05/13 07:08:47;;;;;;;7.43;3.35;;;;;;;17.01;66.61;102310.81;5100089;27;97293;-30
2023/05/13 07:11:12;;;;;;;6.15;3.63;;;;;;;17.02;66.30;102313.47;5100194;27;97811;-30
2023/05/13 07:13:38;;;;;;;5.32;3.13;;;;;;;17.06;66.34;102309.53;5100453;27;96682;-31
2023/05/13 07:16:03;;;;;;;6.28;3.30;;;;;;;17.25;65.80;102308.31;5100413;27;96777;-29
2023/05/13 07:18:29;;;;;;;4.90;3.17;;;;;;;17.28;65.56;102303.53;5099314;27;98048;-30
2023/05/13 07:20:57;;;;;;;5.10;3.22;;;;;;;17.36;64.80;102312.09;5081075;27;99413;-30
2023/05/13 07:23:23;;;;;;;4.43;3.28;;;;;;;17.46;65.21;102308.75;5081397;27;96714;-30
2023/05/13 07:25:50;;;;;;;4.43;2.88;;;;;;;17.58;64.94;102316.13;5081603;27;96821;-30
2023/05/13 07:28:18;;;;;;;7.30;3.30;;;;;;;17.66;64.60;102312.88;5080823;27;100855;-30
2023/05/13 07:30:43;;;;;;;5.63;3.28;;;;;;;17.71;64.88;102310.69;5080933;27;101360;-30
2023/05/13 07:33:09;;;;;;;4.93;2.95;;;;;;;17.76;63.80;102298.44;5099468;27;96500;-30
2023/05/13 07:35:34;;;;;;;5.50;3.03;;;;;;;17.96;64.25;102305.31;5100484;27;96819;-30
2023/05/13 07:37:59;;;;;;;4.30;2.88;;;;;;;18.05;63.43;102306.53;5099343;27;97907;-30
2023/05/13 07:40:25;;;;;;;4.03;2.33;;;;;;;18.13;62.63;102295.91;5099540;27;97818;-30
2023/05/13 07:42:50;;;;;;;3.50;2.40;;;;;;;18.17;61.99;102300.19;5099413;27;96477;-30
2023/05/13 07:45:16;;;;;;;3.35;2.42;;;;;;;18.27;61.96;102294.94;5099711;27;96802;-30
2023/05/13 07:47:41;;;;;;;3.55;2.25;;;;;;;18.36;61.14;102301.63;5098909;27;98203;-29
2023/05/13 07:50:07;;;;;;;3.65;2.30;;;;;;;18.50;61.88;102308.88;5099163;27;97264;-30
2023/05/13 07:52:32;;;;;;;3.13;2.45;;;;;;;18.57;60.05;102301.97;5080615;27;96736;-29
2023/05/13 07:54:58;;;;;;;3.25;2.42;;;;;;;18.71;60.60;102296.34;5098815;27;97124;-31
2023/05/13 07:57:23;;;;;;;4.65;2.40;;;;;;;18.80;60.71;102305.78;5098947;27;99666;-31
2023/05/13 07:59:49;;;;;;;3.63;2.42;;;;;;;18.89;60.50;102308.75;5081124;27;97844;-30
2023/05/13 08:02:14;;;;;;;4.65;2.80;;;;;;;18.96;60.46;102294.56;5099930;27;96537;-30
2023/05/13 08:04:40;;;;;;;3.47;2.25;;;;;;;19.06;59.75;102296.50;5099568;27;96768;-30
2023/05/13 08:07:05;;;;;;;7.00;2.63;;;;;;;19.13;59.21;102299.69;5098462;27;97960;-32
2023/05/13 08:09:30;;;;;;;3.65;2.42;;;;;;;19.23;57.51;102302.63;5099154;27;97292;-31
2023/05/13 08:11:56;;;;;;;3.92;2.47;;;;;;;19.15;57.33;102305.94;5099472;27;96750;-31
2023/05/13 08:14:22;;;;;;;3.78;2.38;;;;;;;19.25;58.95;102295.13;5080702;27;96822;-32
2023/05/13 08:16:47;;;;;;;4.43;2.40;;;;;;;19.41;58.11;102294.88;5098721;27;97729;-34
2023/05/13 08:19:13;;;;;;;3.75;2.25;;;;;;;19.59;57.44;102298.06;5098770;27;97720;-31
2023/05/13 08:21:39;;;;;;;3.42;2.38;;;;;;;19.67;57.67;102306.63;5080417;27;96698;-33
2023/05/13 08:24:05;;;;;;;6.53;2.97;;;;;;;19.68;57.33;102298.25;5099300;27;96852;-32
2023/05/13 08:26:31;;;;;;;3.58;2.47;;;;;;;19.71;56.71;102298.03;5098397;27;99376;-31
2023/05/13 08:28:56;;;;;;;4.82;2.42;;;;;;;19.74;57.11;102302.44;5079882;27;100887;-31
2023/05/13 08:31:23;;;;;;;7.55;2.65;;;;;;;19.87;57.21;102305.97;5097720;27;99517;-31
2023/05/13 08:33:50;;;;;;;4.25;2.53;;;;;;;19.98;56.18;102307.03;5099167;27;96573;-32
2023/05/13 08:36:16;;;;;;;7.57;2.65;;;;;;;20.08;56.32;102316.31;5079606;27;98941;-31
2023/05/13 08:38:42;;;;;;;5.40;2.92;;;;;;;20.05;55.08;102306.41;5098384;27;99396;-31
2023/05/13 08:41:11;;;;;;;4.43;2.70;;;;;;;20.05;54.95;102311.91;5080401;27;96473;-31
2023/05/13 08:43:38;;;;;;;6.28;2.15;;;;;;;20.15;55.83;102306.56;5080290;27;96891;-31
2023/05/13 08:46:06;;;;;;;4.50;2.25;;;;;;;20.32;56.20;102313.47;5079678;27;101166;-31
2023/05/13 08:48:33;;;;;;;4.53;2.38;;;;;;;20.51;55.60;102307.38;5079788;27;100794;-31
2023/05/13 08:51:00;;;;;;;5.43;2.35;;;;;;;20.68;54.94;102309.66;5080100;27;96556;-31
2023/05/13 08:53:26;;;;;;;4.97;2.53;;;;;;;20.77;54.94;102314.44;5098640;27;96933;-31
2023/05/13 08:55:52;;;;;;;5.15;2.80;;;;;;;20.84;54.16;102312.06;5079121;27;101171;-31
2023/05/13 08:58:18;;;;;;;4.35;2.13;;;;;;;20.87;54.16;102311.78;5079458;27;101382;-31
2023/05/13 09:00:43;;;;;;;4.95;2.85;;;;;;;20.84;53.64;102305.69;5080471;27;96614;-32
2023/05/13 09:03:10;;;;;;;4.47;2.80;;;;;;;20.82;53.43;102307.69;5098430;27;96849;-33
2023/05/13 09:05:36;;;;;;;4.10;2.70;;;;;;;20.84;53.22;102313.94;5080733;27;101369;-31
2023/05/13 09:08:10;;;;;;;3.72;2.47;;;;;;;21.04;53.91;102310.41;5101936;27;97719;-31
2023/05/13 09:10:38;;;;;;;6.45;2.47;;;;;;;21.25;52.83;102312.38;5099746;27;96564;-30
2023/05/13 09:13:05;;;;;;;2.70;2.00;;;;;;;21.31;52.49;102314.59;5081416;27;96792;-31
2023/05/13 09:15:30;;;;;;;4.82;2.47;;;;;;;21.38;50.26;102305.72;5080383;27;100987;-31
2023/05/13 09:18:06;;;;;;;5.95;2.60;;;;;;;21.41;52.22;102310.13;5098941;27;97947;-31
2023/05/13 09:20:33;;;;;;;4.60;2.53;;;;;;;21.46;51.60;102304.22;5098921;27;96494;-33
2023/05/13 09:23:11;;;;;;;3.80;2.30;;;;;;;21.51;49.96;102308.34;5080738;27;96938;-31
2023/05/13 09:25:37;;;;;;;5.75;2.95;;;;;;;21.48;52.01;102302.22;5080364;27;100880;-31
2023/05/13 09:28:05;;;;;;;3.47;2.38;;;;;;;21.58;51.69;102312.31;5080174;27;100894;-32
2023/05/13 09:30:35;;;;;;;3.95;2.35;;;;;;;21.68;50.93;102306.91;5080663;27;96556;-31
2023/05/13 09:33:12;;;;;;;4.68;2.50;;;;;;;21.80;50.99;102310.47;5098774;27;96540;-31
2023/05/13 09:35:39;;;;;;;4.28;2.38;;;;;;;21.79;50.76;102300.47;5080036;27;100902;-31
2023/05/13 09:38:15;;;;;;;6.85;2.78;;;;;;;21.95;49.55;102302.75;5080530;27;101089;-31
2023/05/13 09:40:48;;;;;;;6.25;2.90;;;;;;;22.07;50.49;102301.69;5080042;27;96550;-31
2023/05/13 09:43:14;;;;;;;3.88;2.17;;;;;;;22.20;50.84;102305.16;5080331;27;96820;-32
2023/05/13 09:45:40;;;;;;;7.07;2.40;;;;;;;22.34;50.06;102306.72;5079626;27;101038;-31
2023/05/13 09:48:07;;;;;;;3.22;2.28;;;;;;;22.41;50.25;102302.41;5098468;27;99193;-31
2023/05/13 09:50:32;;;;;;;4.35;2.33;;;;;;;22.50;49.56;102294.28;5080424;27;96723;-32
2023/05/13 09:53:09;;;;;;;4.38;2.13;;;;;;;22.64;49.23;102300.34;5099057;27;96717;-31
2023/05/13 09:55:34;;;;;;;5.80;2.63;;;;;;;22.65;48.49;102292.94;5098657;27;97994;-31
2023/05/13 09:58:00;;;;;;;4.13;2.33;;;;;;;22.74;48.66;102291.19;5098531;27;97771;-31
2023/05/13 10:00:25;;;;;;;3.20;2.13;;;;;;;22.83;49.17;102298.66;5080131;27;96514;-31
2023/05/13 10:02:51;;;;;;;3.58;2.17;;;;;;;22.83;47.85;102291.25;5080458;27;96887;-31
2023/05/13 10:05:17;;;;;;;9.50;2.63;;;;;;;22.85;48.61;102291.09;5098164;27;97945;-33
2023/05/13 10:07:42;;;;;;;3.78;2.40;;;;;;;22.98;48.51;102282.59;5079635;27;100669;-31
2023/05/13 10:10:09;;;;;;;4.20;2.20;;;;;;;23.07;47.83;102276.22;5098044;27;96452;-32
2023/05/13 10:12:36;;;;;;;2.83;2.00;;;;;;;23.32;47.58;102296.97;5079798;27;96989;-30
2023/05/13 10:15:03;;;;;;;3.20;1.88;;;;;;;23.40;48.18;102288.81;5079395;27;100999;-31
2023/05/13 10:17:30;;;;;;;5.45;2.30;;;;;;;23.31;48.05;102285.03;5078450;27;101957;-31
2023/05/13 10:19:56;;;;;;;3.95;2.38;;;;;;;23.42;48.04;102283.16;5079741;27;96685;-31
2023/05/13 10:22:30;;;;;;;3.47;2.50;;;;;;;23.39;45.74;102280.69;5097998;27;97639;-32
2023/05/13 10:24:58;;;;;;;6.40;2.47;;;;;;;23.46;47.20;102279.09;5079087;27;101063;-32
2023/05/13 10:27:28;;;;;;;3.22;2.00;;;;;;;23.57;47.86;102278.91;5079772;27;99137;-32
2023/05/13 10:29:55;;;;;;;4.22;2.47;;;;;;;23.50;47.05;102277.75;5079553;27;96649;-31
2023/05/13 10:32:24;;;;;;;7.68;2.50;;;;;;;23.43;46.47;102271.06;5097322;27;96810;-32
2023/05/13 10:34:56;;;;;;;3.05;2.03;;;;;;;23.43;45.98;102271.06;5061675;27;101197;-31
2023/05/13 10:37:42;;;;;;;3.97;2.05;;;;;;;23.47;46.18;102261.44;5097879;27;99221;-30
2023/05/13 10:40:23;;;;;;;3.17;2.13;;;;;;;23.72;47.05;102271.97;5069313;27;96844;-32
2023/05/13 10:43:15;;;;;;;4.40;2.60;;;;;;;23.69;45.86;102261.19;5068040;27;96851;-32
2023/05/13 10:45:56;;;;;;;4.93;2.40;;;;;;;23.90;46.89;102268.47;5084855;27;97709;-31
2023/05/13 10:48:22;;;;;;;5.05;3.05;;;;;;;23.91;46.36;102264.69;5066638;27;101399;-31
2023/05/13 10:50:55;;;;;;;6.25;3.10;;;;;;;23.99;46.60;102261.19;5067108;27;96780;-31
2023/05/13 10:53:27;;;;;;;4.85;2.55;;;;;;;24.08;46.01;102261.16;5067120;27;96824;-31
2023/05/13 10:55:55;;;;;;;4.97;2.53;;;;;;;24.22;46.30;102259.84;5084289;27;97837;-32
2023/05/13 10:58:28;;;;;;;3.28;2.10;;;;;;;24.28;45.89;102250.91;5084903;27;97383;-31
2023/05/13 11:01:13;;;;;;;4.93;2.38;;;;;;;24.38;45.62;102264.72;5100080;27;96878;-31
2023/05/13 11:03:39;;;;;;;4.10;2.38;;;;;;;24.41;45.50;102258.91;5078414;27;96898;-33
2023/05/13 11:06:15;;;;;;;6.70;2.58;;;;;;;24.36;44.77;102264.91;5078065;27;101323;-32
2023/05/13 11:08:43;;;;;;;4.03;2.47;;;;;;;24.35;44.65;102262.25;5078567;27;100849;-32
2023/05/13 11:11:21;;;;;;;5.43;2.40;;;;;;;24.37;45.15;102254.69;5097591;27;96580;-31
2023/05/13 11:13:50;;;;;;;6.78;2.42;;;;;;;24.44;44.09;102253.06;5097398;27;96801;-31
2023/05/13 11:16:16;;;;;;;4.22;2.33;;;;;;;24.52;45.57;102255.97;5078562;27;101018;-32
2023/05/13 11:18:42;;;;;;;3.38;2.45;;;;;;;24.49;44.44;102255.41;5097207;27;99144;-32
2023/05/13 11:21:08;;;;;;;5.57;2.40;;;;;;;24.55;44.82;102258.44;5095821;27;97071;-32
2023/05/13 11:23:50;;;;;;;3.35;2.15;;;;;;;24.63;43.24;102254.03;5098932;27;96744;-33